Time;durP1;ratioP1;P1;durP2;ratioP2;P2;SDS_P1;SDS_P2;PMS_P1;PMS_P2;Temp;Humidity;BMP_temperature;BMP_pressure;BME280_temperature;BME280_humidity;BME280_pressure;Samples;Min_cycle;Max_cycle;Signal;HPM_P1;HPM_P2
2022/11/02 00:01:14;;;;;;;39.88;12.37;;;;;;;;;;1652383;86;21027;-89
2022/11/02 00:03:40;;;;;;;35.65;12.23;;;;;;;;;;1652323;86;21138;-88
2022/11/02 00:06:05;;;;;;;41.95;14.20;;;;;;;;;;1652189;86;21140;-88
2022/11/02 00:08:31;;;;;;;36.53;11.43;;;;;;;;;;1652288;86;20971;-89
2022/11/02 00:10:56;;;;;;;36.38;12.85;;;;;;;;;;1652405;86;21880;-88
2022/11/02 00:13:22;;;;;;;38.10;12.65;;;;;;;;;;1703598;84;20920;-89
2022/11/02 00:15:48;;;;;;;33.92;12.35;;;;;;;;;;1704059;84;20952;-86
2022/11/02 00:18:14;;;;;;;31.70;12.03;;;;;;;;;;1704343;84;20845;-88
2022/11/02 00:20:41;;;;;;;36.35;12.68;;;;;;;;;;1704277;84;20869;-88
2022/11/02 00:23:09;;;;;;;32.55;12.20;;;;;;;;;;1704194;84;21794;-87
2022/11/02 00:25:40;;;;;;;29.92;11.50;;;;;;;;;;1703861;84;21043;-88
2022/11/02 00:28:05;;;;;;;31.33;11.28;;;;;;;;;;1704048;84;20924;-87
2022/11/02 00:30:31;;;;;;;30.85;11.45;;;;;;;;;;1683657;84;20960;-88
2022/11/02 00:32:56;;;;;;;34.00;11.15;;;;;;;;;;1704151;84;20896;-88
2022/11/02 00:35:22;;;;;;;33.50;12.15;;;;;;;;;;1704159;84;21081;-88
2022/11/02 00:37:48;;;;;;;36.13;12.05;;;;;;;;;;1704167;84;21583;-88
2022/11/02 00:40:14;;;;;;;31.82;11.38;;;;;;;;;;1704242;84;20806;-88
2022/11/02 00:42:39;;;;;;;33.08;11.70;;;;;;;;;;1704058;84;21503;-88
2022/11/02 00:45:06;;;;;;;25.37;10.80;;;;;;;;;;1703992;84;20908;-87
2022/11/02 00:47:32;;;;;;;30.80;10.58;;;;;;;;;;1704143;84;21131;-88
2022/11/02 00:49:58;;;;;;;28.83;11.43;;;;;;;;;;1683921;84;20987;-88
2022/11/02 00:52:23;;;;;;;37.95;11.68;;;;;;;;;;1704268;84;20802;-87
2022/11/02 00:54:49;;;;;;;29.23;11.05;;;;;;;;;;1703590;83;20873;-88
2022/11/02 00:57:15;;;;;;;30.75;11.55;;;;;;;;;;1703452;83;20999;-87
2022/11/02 00:59:43;;;;;;;36.15;10.72;;;;;;;;;;1703699;84;21132;-86
2022/11/02 01:02:09;;;;;;;31.37;10.88;;;;;;;;;;1704134;84;21032;-88
2022/11/02 01:04:34;;;;;;;33.15;11.63;;;;;;;;;;1703881;84;20908;-88
2022/11/02 01:07:01;;;;;;;27.52;11.75;;;;;;;;;;1703833;84;21598;-86
2022/11/02 01:09:26;;;;;;;32.60;11.78;;;;;;;;;;1703802;83;21058;-88
2022/11/02 01:11:53;;;;;;;30.55;11.53;;;;;;;;;;1703907;84;21127;-93
2022/11/02 01:14:19;;;;;;;32.15;10.70;;;;;;;;;;1703582;83;21051;-87
2022/11/02 01:16:45;;;;;;;28.32;11.53;;;;;;;;;;1703992;84;20940;-87
2022/11/02 01:19:11;;;;;;;37.05;11.97;;;;;;;;;;1703743;84;20884;-88
2022/11/02 01:21:37;;;;;;;30.72;11.45;;;;;;;;;;1703778;83;21732;-88
2022/11/02 01:24:03;;;;;;;29.35;12.10;;;;;;;;;;1703815;84;21575;-91
2022/11/02 01:26:28;;;;;;;31.07;10.93;;;;;;;;;;1703026;83;21143;-87
2022/11/02 01:28:54;;;;;;;31.93;12.37;;;;;;;;;;1703817;83;20877;-86
2022/11/02 01:31:20;;;;;;;30.00;11.05;;;;;;;;;;1704160;83;21339;-88
2022/11/02 01:33:46;;;;;;;28.52;11.30;;;;;;;;;;1703945;84;21202;-87
2022/11/02 01:36:13;;;;;;;29.52;11.88;;;;;;;;;;1703908;83;21860;-89
2022/11/02 01:38:39;;;;;;;38.48;11.85;;;;;;;;;;1704934;83;21003;-88
2022/11/02 01:41:05;;;;;;;28.80;11.57;;;;;;;;;;1703765;83;21062;-88
2022/11/02 01:43:33;;;;;;;28.02;11.97;;;;;;;;;;1700652;84;20975;-88
2022/11/02 01:46:08;;;;;;;29.20;11.00;;;;;;;;;;1703973;83;21524;-88
2022/11/02 01:49:03;;;;;;;42.75;14.90;;;;;;;;;;1703969;83;21075;-86
2022/11/02 01:51:35;;;;;;;34.75;12.58;;;;;;;;;;1703838;83;21675;-89
2022/11/02 01:54:07;;;;;;;41.02;13.32;;;;;;;;;;1703748;83;21003;-87
2022/11/02 01:56:34;;;;;;;37.95;13.58;;;;;;;;;;1663259;85;21107;-92
2022/11/02 01:59:02;;;;;;;46.50;14.30;;;;;;;;;;1662756;85;20972;-90
2022/11/02 02:01:28;;;;;;;39.50;13.62;;;;;;;;;;1664406;85;22317;-89
2022/11/02 02:03:55;;;;;;;33.48;12.07;;;;;;;;;;1666137;85;20961;-86
2022/11/02 02:06:24;;;;;;;36.98;12.53;;;;;;;;;;1661935;85;21130;-88
2022/11/02 02:08:50;;;;;;;36.55;13.80;;;;;;;;;;1662425;85;21028;-89
2022/11/02 02:13:55;;;;;;;38.90;13.80;;;;;;;;;;1578981;90;21591;-92
2022/11/02 02:16:24;;;;;;;37.58;14.05;;;;;;;;;;1581946;90;21110;-88
2022/11/02 02:18:56;;;;;;;44.93;16.57;;;;;;;;;;1579168;89;21135;-88
2022/11/02 02:21:34;;;;;;;37.15;14.87;;;;;;;;;;1579792;90;21694;-87
2022/11/02 02:24:15;;;;;;;46.75;15.18;;;;;;;;;;1582194;89;21097;-91
2022/11/02 02:27:02;;;;;;;49.80;18.48;;;;;;;;;;1578559;89;22149;-88
2022/11/02 02:29:43;;;;;;;58.05;17.90;;;;;;;;;;1581917;89;21110;-88
2022/11/02 02:32:13;;;;;;;51.60;16.12;;;;;;;;;;1528892;92;21122;-88
2022/11/02 02:34:51;;;;;;;61.85;18.90;;;;;;;;;;1457221;97;21081;-88
2022/11/02 02:37:20;;;;;;;53.28;18.45;;;;;;;;;;1454639;97;21053;-87
2022/11/02 02:39:50;;;;;;;46.23;16.45;;;;;;;;;;1476743;96;21845;-88
2022/11/02 02:42:22;;;;;;;56.10;19.25;;;;;;;;;;1412728;100;21639;-88
2022/11/02 02:44:54;;;;;;;70.75;22.67;;;;;;;;;;1412788;100;21594;-89
2022/11/02 02:47:22;;;;;;;61.53;20.88;;;;;;;;;;1410589;101;21110;-88
2022/11/02 02:49:50;;;;;;;75.80;23.83;;;;;;;;;;1412849;101;21177;-88
2022/11/02 02:52:17;;;;;;;75.62;23.75;;;;;;;;;;1410332;100;21749;-89
2022/11/02 02:54:44;;;;;;;66.07;21.75;;;;;;;;;;1407647;100;21149;-93
2022/11/02 02:57:12;;;;;;;80.15;24.35;;;;;;;;;;1399409;102;21642;-88
2022/11/02 02:59:40;;;;;;;79.25;24.15;;;;;;;;;;1399599;102;21116;-88
2022/11/02 03:02:10;;;;;;;68.52;23.52;;;;;;;;;;1399474;101;21189;-89
2022/11/02 03:04:35;;;;;;;72.45;23.47;;;;;;;;;;1399582;100;21341;-89
2022/11/02 03:07:02;;;;;;;77.53;24.07;;;;;;;;;;1399481;102;21092;-89
2022/11/02 03:09:44;;;;;;;75.92;24.75;;;;;;;;;;1434131;95;21094;-88
2022/11/02 03:12:44;;;;;;;75.37;23.47;;;;;;;;;;1524384;94;22850;-88
2022/11/02 03:15:19;;;;;;;70.42;22.87;;;;;;;;;;1524576;92;21324;-89
2022/11/02 03:18:04;;;;;;;50.85;18.00;;;;;;;;;;1522608;94;21257;-88
2022/11/02 03:20:47;;;;;;;53.38;18.62;;;;;;;;;;1560066;91;21531;-88
2022/11/02 03:23:31;;;;;;;59.05;19.65;;;;;;;;;;1568709;89;21606;-89
2022/11/02 03:26:20;;;;;;;61.30;20.10;;;;;;;;;;1570288;90;21137;-88
2022/11/02 03:28:58;;;;;;;64.58;21.90;;;;;;;;;;1570126;90;21109;-87
2022/11/02 03:31:37;;;;;;;58.45;19.23;;;;;;;;;;1619930;84;21853;-87
2022/11/02 03:34:23;;;;;;;61.95;19.57;;;;;;;;;;1651228;86;22898;-88
2022/11/02 03:36:53;;;;;;;61.28;20.00;;;;;;;;;;1644847;87;21075;-88
2022/11/02 03:39:22;;;;;;;61.40;20.70;;;;;;;;;;1641717;85;21016;-88
2022/11/02 03:41:48;;;;;;;66.40;20.40;;;;;;;;;;1644930;87;21126;-87
2022/11/02 03:44:20;;;;;;;69.67;22.22;;;;;;;;;;1644599;87;21871;-85
2022/11/02 03:46:46;;;;;;;58.58;20.10;;;;;;;;;;1642073;87;21109;-87
2022/11/02 03:49:14;;;;;;;61.25;19.62;;;;;;;;;;1644709;87;21356;-87
2022/11/02 03:51:42;;;;;;;62.40;21.52;;;;;;;;;;1644792;87;21570;-87
2022/11/02 03:54:12;;;;;;;62.30;21.57;;;;;;;;;;1645857;85;21834;-87
2022/11/02 03:56:46;;;;;;;66.92;22.25;;;;;;;;;;1662949;84;21254;-84
2022/11/02 03:59:14;;;;;;;54.67;18.32;;;;;;;;;;1665770;85;21165;-87
2022/11/02 04:01:43;;;;;;;57.60;18.27;;;;;;;;;;1665574;85;21031;-87
2022/11/02 04:04:09;;;;;;;53.38;19.23;;;;;;;;;;1624878;86;21147;-87
2022/11/02 04:06:35;;;;;;;58.28;18.12;;;;;;;;;;1624807;86;21159;-85
2022/11/02 04:09:00;;;;;;;55.23;17.52;;;;;;;;;;1625007;87;21165;-87
2022/11/02 04:19:40;;;;;;;50.12;17.62;;;;;;;;;;1629233;86;21065;-91
2022/11/02 04:27:34;;;;;;;48.63;16.40;;;;;;;;;;1629418;86;21078;-86
2022/11/02 04:29:59;;;;;;;44.00;15.30;;;;;;;;;;1607701;86;20939;-92
2022/11/02 04:35:09;;;;;;;43.25;15.95;;;;;;;;;;1629673;86;21543;-88
2022/11/02 04:40:24;;;;;;;42.05;15.60;;;;;;;;;;1574346;89;21161;-89
2022/11/02 04:42:50;;;;;;;40.38;15.15;;;;;;;;;;1574575;89;21002;-88
2022/11/02 04:45:16;;;;;;;43.38;14.58;;;;;;;;;;1574944;89;21557;-87
2022/11/02 04:47:41;;;;;;;39.73;14.83;;;;;;;;;;1574836;89;21116;-88
2022/11/02 04:50:08;;;;;;;42.40;14.40;;;;;;;;;;1574781;89;20899;-88
2022/11/02 04:52:33;;;;;;;47.50;14.55;;;;;;;;;;1575029;89;21065;-87
2022/11/02 04:54:59;;;;;;;49.08;15.50;;;;;;;;;;1568275;90;20875;-85
2022/11/02 04:57:25;;;;;;;55.45;15.80;;;;;;;;;;1553364;92;21895;-85
2022/11/02 04:59:50;;;;;;;51.20;16.02;;;;;;;;;;1533759;90;21165;-88
2022/11/02 05:02:16;;;;;;;53.68;14.87;;;;;;;;;;1563873;90;21475;-86
2022/11/02 05:04:41;;;;;;;43.00;14.43;;;;;;;;;;1584222;89;21430;-89
2022/11/02 05:07:09;;;;;;;41.13;12.93;;;;;;;;;;1584468;89;20907;-88
2022/11/02 05:12:04;;;;;;;35.88;11.78;;;;;;;;;;1582737;89;21120;-86
2022/11/02 05:14:30;;;;;;;32.35;10.85;;;;;;;;;;1585516;90;21066;-87
2022/11/02 05:16:56;;;;;;;32.23;10.58;;;;;;;;;;1582517;89;21085;-88
2022/11/02 05:19:22;;;;;;;39.03;11.65;;;;;;;;;;1585941;90;21122;-89
2022/11/02 05:21:48;;;;;;;37.75;12.15;;;;;;;;;;1585808;90;21207;-89
2022/11/02 05:24:13;;;;;;;35.20;11.90;;;;;;;;;;1585681;90;21102;-87
2022/11/02 05:26:39;;;;;;;35.60;11.97;;;;;;;;;;1585570;89;20975;-89
2022/11/02 05:29:05;;;;;;;36.98;13.08;;;;;;;;;;1565115;90;20884;-88
2022/11/02 05:31:30;;;;;;;41.77;13.68;;;;;;;;;;1585961;89;20943;-90
2022/11/02 05:33:56;;;;;;;38.60;12.90;;;;;;;;;;1585810;90;20975;-88
2022/11/02 05:36:22;;;;;;;42.58;14.07;;;;;;;;;;1606080;86;22084;-89
2022/11/02 05:38:53;;;;;;;46.00;14.95;;;;;;;;;;1650924;86;20915;-89
2022/11/02 05:41:18;;;;;;;36.17;12.80;;;;;;;;;;1651099;86;21118;-92
2022/11/02 05:43:44;;;;;;;38.70;11.83;;;;;;;;;;1651277;86;21010;-87
2022/11/02 05:46:10;;;;;;;31.82;11.68;;;;;;;;;;1651051;86;20987;-91
2022/11/02 05:48:35;;;;;;;31.10;10.70;;;;;;;;;;1651137;86;21696;-90
2022/11/02 05:51:03;;;;;;;31.70;10.40;;;;;;;;;;1651222;86;20948;-90
2022/11/02 05:55:58;;;;;;;30.92;9.60;;;;;;;;;;1627466;84;21550;-90
2022/11/02 05:58:24;;;;;;;31.60;10.08;;;;;;;;;;1626729;88;21103;-90
2022/11/02 06:00:50;;;;;;;27.90;10.10;;;;;;;;;;1626584;88;21114;-90
2022/11/02 06:03:16;;;;;;;28.10;10.50;;;;;;;;;;1627169;88;20983;-90
2022/11/02 06:05:42;;;;;;;32.70;11.40;;;;;;;;;;1626504;88;21620;-90
2022/11/02 06:08:08;;;;;;;29.15;10.65;;;;;;;;;;1626765;88;21679;-90
2022/11/02 06:10:34;;;;;;;29.90;11.40;;;;;;;;;;1627529;88;20954;-88
2022/11/02 06:13:01;;;;;;;40.88;12.43;;;;;;;;;;1627724;88;21448;-90
2022/11/02 06:15:29;;;;;;;31.05;12.10;;;;;;;;;;1627038;88;21120;-90
2022/11/02 06:17:54;;;;;;;34.50;11.85;;;;;;;;;;1627396;88;21027;-88
2022/11/02 06:20:21;;;;;;;32.00;11.70;;;;;;;;;;1627220;86;20948;-91
2022/11/02 06:22:47;;;;;;;32.20;12.05;;;;;;;;;;1627540;88;21011;-87
2022/11/02 06:25:13;;;;;;;26.57;10.82;;;;;;;;;;1627572;88;21039;-88
2022/11/02 06:27:40;;;;;;;25.95;10.82;;;;;;;;;;1626874;88;21657;-89
2022/11/02 06:30:07;;;;;;;25.43;10.50;;;;;;;;;;1627311;88;21536;-88
2022/11/02 06:32:33;;;;;;;23.30;10.05;;;;;;;;;;1627438;88;21058;-94
2022/11/02 06:34:59;;;;;;;25.23;9.95;;;;;;;;;;1627412;88;20991;-88
2022/11/02 06:37:25;;;;;;;23.12;9.45;;;;;;;;;;1627207;88;21088;-88
2022/11/02 06:39:50;;;;;;;19.37;8.13;;;;;;;;;;1627551;88;20959;-88
2022/11/02 06:42:16;;;;;;;23.67;7.78;;;;;;;;;;1623955;88;20809;-87
2022/11/02 06:44:42;;;;;;;21.87;8.65;;;;;;;;;;1627647;88;20875;-87
2022/11/02 06:47:08;;;;;;;25.60;8.75;;;;;;;;;;1627837;88;21003;-89
2022/11/02 06:49:33;;;;;;;21.07;8.63;;;;;;;;;;1627322;86;21241;-89
2022/11/02 06:51:59;;;;;;;20.82;8.30;;;;;;;;;;1627411;88;20888;-88
2022/11/02 06:54:25;;;;;;;22.77;9.15;;;;;;;;;;1627509;88;20817;-87
2022/11/02 06:56:51;;;;;;;29.60;9.75;;;;;;;;;;1619364;87;21364;-90
2022/11/02 06:59:16;;;;;;;23.77;9.18;;;;;;;;;;1673385;84;20904;-89
2022/11/02 07:01:42;;;;;;;28.25;9.20;;;;;;;;;;1707178;81;21072;-88
2022/11/02 07:04:08;;;;;;;22.05;9.40;;;;;;;;;;1720184;81;20967;-92
2022/11/02 07:06:34;;;;;;;25.48;9.25;;;;;;;;;;1732461;81;20883;-86
2022/11/02 07:08:59;;;;;;;25.43;9.53;;;;;;;;;;1725622;81;22423;-89
2022/11/02 07:11:25;;;;;;;23.20;9.58;;;;;;;;;;1726461;81;20907;-89
2022/11/02 07:13:51;;;;;;;27.50;9.98;;;;;;;;;;1733672;82;21839;-88
2022/11/02 07:16:18;;;;;;;25.32;10.00;;;;;;;;;;1715203;81;20880;-90
2022/11/02 07:18:46;;;;;;;23.80;9.70;;;;;;;;;;1642714;85;21625;-89
2022/11/02 07:21:12;;;;;;;19.45;10.18;;;;;;;;;;1587100;88;21222;-91
2022/11/02 07:23:38;;;;;;;24.82;10.43;;;;;;;;;;1578261;89;21039;-90
2022/11/02 07:26:04;;;;;;;23.25;9.55;;;;;;;;;;1594419;88;22091;-91
2022/11/02 07:28:30;;;;;;;26.30;11.35;;;;;;;;;;1586152;87;21063;-88
2022/11/02 07:30:55;;;;;;;23.40;11.40;;;;;;;;;;1583549;89;21027;-88
2022/11/02 07:33:21;;;;;;;27.90;13.20;;;;;;;;;;1590080;89;20892;-89
2022/11/02 07:35:47;;;;;;;23.73;11.53;;;;;;;;;;1595151;89;20905;-88
2022/11/02 07:38:13;;;;;;;20.97;10.82;;;;;;;;;;1594712;89;21046;-90
2022/11/02 07:40:39;;;;;;;20.92;10.78;;;;;;;;;;1594623;88;20948;-89
2022/11/02 07:43:07;;;;;;;25.23;12.05;;;;;;;;;;1595002;89;21048;-90
2022/11/02 07:45:32;;;;;;;22.55;11.57;;;;;;;;;;1594716;89;21072;-88
2022/11/02 07:47:58;;;;;;;27.85;12.03;;;;;;;;;;1585495;88;20950;-89
2022/11/02 07:50:28;;;;;;;19.70;10.35;;;;;;;;;;1578974;90;21640;-88
2022/11/02 07:52:55;;;;;;;20.12;10.30;;;;;;;;;;1578862;90;21085;-89
2022/11/02 07:55:24;;;;;;;20.15;9.90;;;;;;;;;;1583697;88;21176;-92
2022/11/02 07:58:01;;;;;;;22.58;10.25;;;;;;;;;;1536471;92;21565;-89
2022/11/02 08:00:30;;;;;;;19.73;9.73;;;;;;;;;;1536116;92;21192;-89
2022/11/02 08:02:56;;;;;;;21.30;10.58;;;;;;;;;;1511639;93;21156;-90
2022/11/02 08:05:22;;;;;;;19.20;9.75;;;;;;;;;;1511814;94;21736;-86
2022/11/02 08:07:57;;;;;;;25.88;9.55;;;;;;;;;;1511633;93;20982;-91
2022/11/02 08:10:23;;;;;;;17.57;9.10;;;;;;;;;;1511668;93;21147;-91
2022/11/02 08:12:49;;;;;;;18.50;8.43;;;;;;;;;;1512001;93;21106;-89
2022/11/02 08:15:14;;;;;;;24.72;8.48;;;;;;;;;;1529145;91;21077;-90
2022/11/02 08:17:40;;;;;;;14.80;7.12;;;;;;;;;;1579870;88;20963;-89
2022/11/02 08:20:07;;;;;;;18.40;7.30;;;;;;;;;;1614089;88;20824;-88
2022/11/02 08:22:36;;;;;;;21.23;7.70;;;;;;;;;;1613054;87;21062;-88
2022/11/02 08:25:03;;;;;;;20.10;8.00;;;;;;;;;;1618473;88;21111;-89
2022/11/02 08:27:28;;;;;;;19.85;8.23;;;;;;;;;;1608296;86;21243;-91
2022/11/02 08:29:54;;;;;;;20.25;7.65;;;;;;;;;;1620202;87;20939;-87
2022/11/02 08:32:20;;;;;;;22.10;7.33;;;;;;;;;;1621286;88;21748;-90
2022/11/02 08:34:46;;;;;;;20.97;7.53;;;;;;;;;;1621734;87;21066;-90
2022/11/02 08:37:12;;;;;;;23.90;8.30;;;;;;;;;;1609183;88;20963;-86
2022/11/02 08:39:38;;;;;;;18.12;7.47;;;;;;;;;;1625100;88;21026;-90
2022/11/02 08:42:04;;;;;;;27.17;7.85;;;;;;;;;;1623062;87;21082;-90
2022/11/02 08:44:29;;;;;;;19.05;7.50;;;;;;;;;;1602115;88;21694;-90
2022/11/02 08:46:56;;;;;;;19.05;7.17;;;;;;;;;;1601278;86;21054;-90
2022/11/02 08:49:21;;;;;;;18.60;7.70;;;;;;;;;;1633735;87;21114;-91
2022/11/02 08:51:47;;;;;;;21.52;7.42;;;;;;;;;;1625085;88;21034;-90
2022/11/02 08:54:13;;;;;;;22.20;7.00;;;;;;;;;;1628924;86;21001;-90
2022/11/02 08:56:39;;;;;;;20.00;6.78;;;;;;;;;;1649761;85;21023;-88
2022/11/02 08:59:05;;;;;;;24.18;7.58;;;;;;;;;;1661953;83;21359;-91
2022/11/02 09:01:31;;;;;;;18.07;7.15;;;;;;;;;;1711127;83;21308;-89
2022/11/02 09:03:57;;;;;;;17.75;6.30;;;;;;;;;;1726923;80;21122;-90
2022/11/02 09:06:23;;;;;;;24.20;8.25;;;;;;;;;;1739813;82;21609;-91
2022/11/02 09:08:48;;;;;;;21.93;7.65;;;;;;;;;;1740529;82;20955;-91
2022/11/02 09:11:15;;;;;;;25.80;8.70;;;;;;;;;;1735139;82;21113;-91
2022/11/02 09:13:41;;;;;;;22.80;7.90;;;;;;;;;;1730898;81;21050;-90
2022/11/02 09:16:07;;;;;;;24.67;8.10;;;;;;;;;;1731222;82;21890;-90
2022/11/02 09:18:32;;;;;;;26.17;8.30;;;;;;;;;;1735027;82;21026;-90
2022/11/02 09:21:04;;;;;;;20.85;9.13;;;;;;;;;;1740636;82;20894;-90
2022/11/02 09:23:30;;;;;;;22.25;7.80;;;;;;;;;;1630536;87;21074;-89
2022/11/02 09:25:57;;;;;;;20.62;7.40;;;;;;;;;;1606529;87;21098;-89
2022/11/02 09:28:22;;;;;;;23.22;7.03;;;;;;;;;;1628230;87;21629;-90
2022/11/02 09:30:48;;;;;;;23.77;7.75;;;;;;;;;;1628369;87;21443;-90
2022/11/02 09:33:14;;;;;;;22.35;7.65;;;;;;;;;;1628416;87;21167;-90
2022/11/02 09:35:43;;;;;;;24.02;7.25;;;;;;;;;;1628088;87;21122;-89
2022/11/02 09:38:10;;;;;;;25.80;7.60;;;;;;;;;;1558098;91;21111;-88
2022/11/02 09:40:39;;;;;;;21.15;7.03;;;;;;;;;;1563704;90;21280;-89
2022/11/02 09:43:17;;;;;;;19.60;6.80;;;;;;;;;;1564218;91;21086;-90
2022/11/02 09:45:54;;;;;;;23.18;6.78;;;;;;;;;;1563924;90;21085;-90
2022/11/02 09:48:24;;;;;;;25.75;7.75;;;;;;;;;;1574036;90;21118;-90
2022/11/02 09:50:56;;;;;;;21.12;7.65;;;;;;;;;;1545178;91;21090;-89
2022/11/02 09:53:25;;;;;;;20.45;7.30;;;;;;;;;;1469291;97;22040;-89
2022/11/02 09:55:53;;;;;;;18.32;5.85;;;;;;;;;;1466256;96;21240;-90
2022/11/02 09:58:23;;;;;;;18.92;6.62;;;;;;;;;;1493614;95;21150;-89
2022/11/02 10:00:51;;;;;;;16.25;6.00;;;;;;;;;;1494915;96;21594;-89
2022/11/02 10:03:35;;;;;;;15.93;5.95;;;;;;;;;;1494780;96;21130;-89
2022/11/02 10:06:04;;;;;;;19.17;7.20;;;;;;;;;;1475169;96;21156;-89
2022/11/02 10:08:36;;;;;;;20.45;6.97;;;;;;;;;;1471121;97;21582;-89
2022/11/02 10:11:14;;;;;;;18.55;6.17;;;;;;;;;;1469651;97;21101;-90
2022/11/02 10:13:52;;;;;;;17.70;6.10;;;;;;;;;;1370375;104;21083;-90
2022/11/02 10:16:21;;;;;;;16.52;6.03;;;;;;;;;;1371478;104;21651;-90
2022/11/02 10:18:50;;;;;;;16.32;6.10;;;;;;;;;;1372909;103;21232;-89
2022/11/02 10:21:22;;;;;;;17.55;5.95;;;;;;;;;;1425906;98;21013;-89
2022/11/02 10:23:51;;;;;;;18.87;5.67;;;;;;;;;;1433010;100;21627;-90
2022/11/02 10:26:26;;;;;;;17.37;5.45;;;;;;;;;;1432944;100;21196;-90
2022/11/02 10:29:00;;;;;;;15.30;5.65;;;;;;;;;;1410988;101;21061;-89
2022/11/02 10:31:32;;;;;;;14.90;5.00;;;;;;;;;;1390473;100;21154;-89
2022/11/02 10:34:17;;;;;;;12.80;5.28;;;;;;;;;;1366918;103;21614;-89
2022/11/02 10:36:53;;;;;;;25.37;6.00;;;;;;;;;;1363141;103;21304;-90
2022/11/02 10:39:43;;;;;;;16.37;5.53;;;;;;;;;;1363342;104;21206;-89
2022/11/02 10:42:16;;;;;;;17.10;5.58;;;;;;;;;;1366055;102;21163;-89
2022/11/02 10:44:57;;;;;;;20.70;6.22;;;;;;;;;;1363085;103;21205;-89
2022/11/02 10:47:26;;;;;;;22.98;6.80;;;;;;;;;;1363486;103;21041;-89
2022/11/02 10:49:59;;;;;;;14.68;5.60;;;;;;;;;;1368231;101;21131;-89
2022/11/02 10:52:28;;;;;;;29.18;10.55;;;;;;;;;;1415788;100;21116;-90
2022/11/02 10:54:54;;;;;;;19.80;7.25;;;;;;;;;;1436218;98;21668;-90
2022/11/02 10:57:24;;;;;;;20.48;7.20;;;;;;;;;;1434611;97;21161;-89
2022/11/02 11:00:24;;;;;;;81.95;24.95;;;;;;;;;;1431363;100;21283;-89
2022/11/02 11:03:11;;;;;;;28.98;11.40;;;;;;;;;;1431431;99;21307;-89
2022/11/02 11:05:52;;;;;;;27.25;8.18;;;;;;;;;;1410203;100;21203;-90
2022/11/02 11:08:31;;;;;;;21.35;7.60;;;;;;;;;;1409315;100;21167;-89
2022/11/02 11:11:17;;;;;;;19.05;6.17;;;;;;;;;;1341062;105;21221;-89
2022/11/02 11:13:46;;;;;;;16.37;5.67;;;;;;;;;;1341235;107;21646;-89
2022/11/02 11:16:12;;;;;;;28.12;8.18;;;;;;;;;;1341127;105;21703;-87
2022/11/02 11:18:37;;;;;;;17.57;5.95;;;;;;;;;;1347004;103;20987;-89
2022/11/02 11:21:04;;;;;;;29.18;11.75;;;;;;;;;;1389598;100;20962;-89
2022/11/02 11:23:29;;;;;;;18.65;6.62;;;;;;;;;;1429666;100;21258;-88
2022/11/02 11:26:03;;;;;;;138.20;56.13;;;;;;;;;;1429774;100;21087;-89
2022/11/02 11:28:39;;;;;;;108.17;48.95;;;;;;;;;;1429689;99;21125;-89
2022/11/02 11:31:08;;;;;;;61.75;29.35;;;;;;;;;;1454824;97;21581;-89
2022/11/02 11:33:55;;;;;;;18.92;7.03;;;;;;;;;;1472870;97;21681;-89
2022/11/02 11:36:27;;;;;;;9.98;4.92;;;;;;;;;;1525623;94;21367;-89
2022/11/02 11:38:56;;;;;;;17.85;5.35;;;;;;;;;;1525769;94;21177;-89
2022/11/02 11:41:22;;;;;;;13.83;4.80;;;;;;;;;;1525857;94;21104;-90
2022/11/02 11:43:49;;;;;;;18.90;6.55;;;;;;;;;;1545111;92;21120;-90
2022/11/02 11:46:15;;;;;;;14.93;5.45;;;;;;;;;;1547514;91;21088;-88
2022/11/02 11:48:50;;;;;;;18.20;5.90;;;;;;;;;;1646291;81;21157;-88
2022/11/02 11:51:37;;;;;;;23.45;6.03;;;;;;;;;;1758102;81;21087;-88
2022/11/02 11:54:05;;;;;;;18.80;5.95;;;;;;;;;;1757589;81;21023;-88
2022/11/02 11:56:31;;;;;;;22.32;8.20;;;;;;;;;;1757215;81;21111;-87
2022/11/02 11:58:58;;;;;;;19.75;7.45;;;;;;;;;;1754996;81;21603;-87
2022/11/02 12:01:23;;;;;;;26.15;7.83;;;;;;;;;;1755086;81;21050;-88
2022/11/02 12:03:59;;;;;;;22.58;7.80;;;;;;;;;;1754807;81;21031;-87
2022/11/02 12:06:31;;;;;;;19.67;6.97;;;;;;;;;;1754646;81;21007;-87
2022/11/02 12:09:12;;;;;;;19.30;6.10;;;;;;;;;;1754845;81;21469;-87
2022/11/02 12:11:53;;;;;;;15.70;4.85;;;;;;;;;;1753266;81;21020;-87
2022/11/02 12:14:39;;;;;;;17.45;5.28;;;;;;;;;;1752985;81;21148;-88
2022/11/02 12:17:35;;;;;;;16.40;5.17;;;;;;;;;;1754967;81;21004;-87
2022/11/02 12:20:39;;;;;;;16.50;5.72;;;;;;;;;;1755045;81;21028;-89
2022/11/02 12:23:23;;;;;;;16.20;5.67;;;;;;;;;;1732026;82;21092;-88
2022/11/02 12:25:55;;;;;;;15.35;5.45;;;;;;;;;;1706968;83;21081;-88
2022/11/02 12:28:44;;;;;;;11.30;4.58;;;;;;;;;;1707226;83;21977;-88
2022/11/02 12:31:20;;;;;;;22.50;5.80;;;;;;;;;;1701992;83;21571;-89
2022/11/02 12:34:01;;;;;;;21.15;6.75;;;;;;;;;;1704040;82;21546;-87
2022/11/02 12:36:39;;;;;;;37.85;11.68;;;;;;;;;;1704907;82;21073;-89
2022/11/02 12:39:14;;;;;;;59.77;18.20;;;;;;;;;;1709483;82;21351;-89
2022/11/02 12:42:09;;;;;;;55.85;18.40;;;;;;;;;;1702974;84;21470;-89
2022/11/02 12:44:56;;;;;;;31.68;10.88;;;;;;;;;;1702442;83;21038;-87
2022/11/02 12:47:28;;;;;;;30.35;10.15;;;;;;;;;;1650448;86;21554;-89
2022/11/02 12:50:19;;;;;;;30.17;10.32;;;;;;;;;;1650483;86;21075;-89
2022/11/02 12:52:54;;;;;;;27.32;8.78;;;;;;;;;;1650858;86;21110;-90
2022/11/02 12:55:23;;;;;;;18.20;7.35;;;;;;;;;;1635226;86;21159;-89
2022/11/02 12:57:50;;;;;;;23.30;7.70;;;;;;;;;;1649856;86;21005;-89
2022/11/02 13:00:20;;;;;;;17.75;6.87;;;;;;;;;;1652816;86;21511;-89
2022/11/02 13:03:06;;;;;;;31.48;9.15;;;;;;;;;;1588486;90;21180;-89
2022/11/02 13:05:35;;;;;;;29.85;9.08;;;;;;;;;;1588289;90;21165;-90
2022/11/02 13:08:07;;;;;;;30.43;9.23;;;;;;;;;;1585828;90;21182;-89
2022/11/02 13:10:40;;;;;;;34.63;11.63;;;;;;;;;;1597936;89;21096;-89
2022/11/02 13:13:09;;;;;;;44.88;13.68;;;;;;;;;;1590033;90;21773;-90
2022/11/02 13:15:36;;;;;;;61.60;16.82;;;;;;;;;;1589923;90;21156;-89
2022/11/02 13:18:06;;;;;;;79.30;22.77;;;;;;;;;;1589968;90;21152;-89
2022/11/02 13:20:40;;;;;;;75.42;22.87;;;;;;;;;;1590244;90;21087;-90
2022/11/02 13:23:19;;;;;;;57.48;18.80;;;;;;;;;;1586880;89;21537;-90
2022/11/02 13:25:50;;;;;;;43.68;13.08;;;;;;;;;;1567696;91;21086;-90
2022/11/02 13:28:43;;;;;;;31.90;10.25;;;;;;;;;;1594293;89;21551;-89
2022/11/02 13:31:19;;;;;;;43.78;14.50;;;;;;;;;;1595678;89;21166;-89
2022/11/02 13:33:50;;;;;;;47.38;16.85;;;;;;;;;;1588142;90;21263;-89
2022/11/02 13:36:16;;;;;;;49.38;17.50;;;;;;;;;;1582142;88;21077;-89
2022/11/02 13:38:44;;;;;;;48.50;15.40;;;;;;;;;;1577589;88;20884;-89
2022/11/02 13:41:31;;;;;;;48.30;16.23;;;;;;;;;;1591775;88;21048;-90
2022/11/02 13:44:02;;;;;;;51.23;17.85;;;;;;;;;;1590252;88;21011;-88
2022/11/02 13:46:49;;;;;;;50.55;18.62;;;;;;;;;;1571686;89;21953;-89
2022/11/02 13:49:18;;;;;;;46.98;16.00;;;;;;;;;;1568745;90;21643;-89
2022/11/02 13:51:47;;;;;;;64.50;19.67;;;;;;;;;;1572058;90;21184;-90
2022/11/02 13:54:34;;;;;;;139.03;43.92;;;;;;;;;;1571562;91;21186;-89
2022/11/02 13:57:00;;;;;;;102.65;31.37;;;;;;;;;;1499500;95;21287;-86
2022/11/02 13:59:29;;;;;;;143.17;43.00;;;;;;;;;;1492870;96;21189;-87
2022/11/02 14:01:55;;;;;;;110.95;32.00;;;;;;;;;;1408294;100;21208;-87
2022/11/02 14:04:21;;;;;;;137.57;43.55;;;;;;;;;;1413726;100;21677;-88
2022/11/02 14:06:53;;;;;;;105.60;31.75;;;;;;;;;;1429288;97;21094;-87
2022/11/02 14:09:25;;;;;;;141.10;43.55;;;;;;;;;;1449975;97;21170;-88
2022/11/02 14:11:55;;;;;;;145.55;44.25;;;;;;;;;;1429740;99;21723;-88
2022/11/02 14:14:23;;;;;;;89.85;26.55;;;;;;;;;;1426027;100;21163;-89
2022/11/02 14:16:52;;;;;;;81.85;25.20;;;;;;;;;;1408588;101;21120;-90
2022/11/02 14:19:31;;;;;;;92.20;27.95;;;;;;;;;;1412814;101;21598;-90
2022/11/02 14:22:04;;;;;;;89.45;26.68;;;;;;;;;;1411330;101;21196;-90
2022/11/02 14:24:37;;;;;;;71.92;21.70;;;;;;;;;;1408790;101;21744;-90
2022/11/02 14:27:20;;;;;;;46.47;15.30;;;;;;;;;;1409546;101;21224;-88
2022/11/02 14:29:52;;;;;;;60.83;17.95;;;;;;;;;;1414498;101;21671;-89
2022/11/02 14:32:33;;;;;;;139.92;35.60;;;;;;;;;;1426786;99;21167;-90
2022/11/02 14:35:35;;;;;;;104.70;28.00;;;;;;;;;;1407030;100;21165;-91
2022/11/02 14:38:28;;;;;;;86.55;24.30;;;;;;;;;;1407540;99;21236;-90
2022/11/02 14:41:07;;;;;;;65.28;19.55;;;;;;;;;;1504155;94;21049;-89
2022/11/02 14:43:45;;;;;;;39.90;14.40;;;;;;;;;;1511256;94;21176;-90
2022/11/02 14:46:20;;;;;;;41.35;16.40;;;;;;;;;;1512071;94;21100;-91
2022/11/02 14:48:51;;;;;;;48.78;15.00;;;;;;;;;;1512588;94;21088;-87
2022/11/02 14:51:23;;;;;;;43.78;14.87;;;;;;;;;;1497256;95;21102;-89
2022/11/02 14:54:09;;;;;;;44.30;16.23;;;;;;;;;;1489650;94;21135;-88
2022/11/02 14:56:55;;;;;;;62.50;21.25;;;;;;;;;;1494866;94;21528;-89
2022/11/02 14:59:34;;;;;;;82.88;27.27;;;;;;;;;;1557187;91;21146;-89
2022/11/02 15:02:02;;;;;;;64.17;22.32;;;;;;;;;;1549985;91;21116;-89
2022/11/02 15:04:29;;;;;;;55.03;20.90;;;;;;;;;;1549554;90;21696;-88